TimeEDT,TemperatureF,Dew PointF,Humidity,Sea Level PressureIn,VisibilityMPH,Wind Direction,Wind SpeedMPH,Gust SpeedMPH,PrecipitationIn,Events,Conditions,WindDirDegrees,DateUTC
12:52 AM,72.0,61.0,68,29.85,10.0,Variable,4.6,-,N/A,,Clear,0,2013-07-21 04:52:00
1:52 AM,72.0,60.1,66,29.86,10.0,NNW,3.5,-,N/A,,Mostly Cloudy,330,2013-07-21 05:52:00
2:52 AM,71.1,60.1,68,29.87,10.0,NNW,4.6,-,N/A,,Partly Cloudy,340,2013-07-21 06:52:00
3:52 AM,69.1,60.1,73,29.86,10.0,NNW,4.6,-,N/A,,Scattered Clouds,340,2013-07-21 07:52:00
4:52 AM,69.1,60.1,73,29.88,10.0,WNW,5.8,-,N/A,,Partly Cloudy,300,2013-07-21 08:52:00
5:52 AM,66.9,60.1,79,29.91,10.0,North,3.5,-,N/A,,Clear,350,2013-07-21 09:52:00
6:52 AM,71.1,61.0,70,29.92,10.0,North,4.6,-,N/A,,Clear,360,2013-07-21 10:52:00
7:52 AM,75.0,61.0,62,29.94,10.0,Calm,Calm,-,N/A,,Clear,0,2013-07-21 11:52:00
8:52 AM,75.9,62.1,62,29.95,10.0,East,3.5,-,N/A,,Clear,90,2013-07-21 12:52:00
9:52 AM,77.0,62.1,60,29.96,10.0,Variable,3.5,-,N/A,,Clear,0,2013-07-21 13:52:00
10:52 AM,80.1,62.1,54,29.96,10.0,Variable,3.5,-,N/A,,Clear,0,2013-07-21 14:52:00
11:52 AM,81.0,61.0,50,29.96,10.0,SE,4.6,-,N/A,,Partly Cloudy,130,2013-07-21 15:52:00
12:52 PM,82.9,61.0,47,29.96,10.0,Calm,Calm,-,N/A,,Partly Cloudy,0,2013-07-21 16:52:00
1:52 PM,82.0,61.0,49,29.96,10.0,ENE,3.5,-,N/A,,Mostly Cloudy,70,2013-07-21 17:52:00
2:52 PM,84.0,61.0,46,29.94,10.0,SW,5.8,-,N/A,,Clear,230,2013-07-21 18:52:00
3:52 PM,82.9,64.9,54,29.95,10.0,East,8.1,-,N/A,,Mostly Cloudy,80,2013-07-21 19:52:00
4:52 PM,82.9,63.0,51,29.94,10.0,ENE,5.8,-,N/A,,Mostly Cloudy,70,2013-07-21 20:52:00
5:52 PM,82.0,64.9,56,29.94,10.0,East,5.8,-,N/A,,Scattered Clouds,100,2013-07-21 21:52:00
6:52 PM,80.1,64.9,60,29.94,10.0,East,5.8,-,N/A,,Partly Cloudy,90,2013-07-21 22:52:00
7:52 PM,78.1,64.0,62,29.96,10.0,ENE,3.5,-,N/A,,Partly Cloudy,60,2013-07-21 23:52:00
8:52 PM,75.0,64.9,71,29.96,10.0,Calm,Calm,-,N/A,,Clear,0,2013-07-22 00:52:00
9:52 PM,73.0,64.9,76,30.00,10.0,Calm,Calm,-,N/A,,Partly Cloudy,0,2013-07-22 01:52:00
10:52 PM,70.0,64.9,84,30.00,10.0,Calm,Calm,-,N/A,,Clear,0,2013-07-22 02:52:00
11:52 PM,69.1,64.9,87,30.01,10.0,Calm,Calm,-,N/A,,Clear,0,2013-07-22 03:52:00